Terminal Aerodrome Forecast
Issued by NWS Bismarck, ND

Home | Current Version | Previous Version | Graphics & Text | Print | Product List | Glossary On
Versions: 1 2 3 4 5 6 7 8 9 10 11 12 13 14 15 16 17
000
FTUS43 KBIS 191848 AAA
TAFISN
TAF AMD
KISN 191848Z 1919/2018 12006KT P6SM SCT015
     FM192000 11008KT P6SM SCT030
     FM200300 10006KT P6SM BKN020
     FM200500 10006KT P6SM VCFG BKN020
     FM201400 10007KT P6SM BKN110=

USA.gov is the U.S. government's official web portal to all federal, state and local government web resources and services.